Forecast Period: 

6 pm 29th September, 2022 to 6 am 30th September,2022

Synopsis:
Unstable conditions  are affecting the islands
Forecast:
Generally cloudy with pockets of moderate to heavy showers, periods of rain and thunderstorms

Weather Advisory:

The flash flood watch remains in effect. Residents and motorists in areas prone to flash-flooding or near rivers and streams should continue to exercise caution

Winds :

S- SSE at less than 25 km/h (16 mph) with higher gust near showers
Sea Conditions:
Slight to moderate in open water with swells from 1.0 to 1.5 m

Marine 

Advisory/Warning:

None

Upcoming Tides:
High: 10:21 pm(29th) 09:00 am
Low:   **** 01:54 am 

Aviation WX

[Source: ADDS]
METAR
TVSA 012200Z 07004KT 9999 BKN018 28/25 Q1013 NOSIG =
TVSA 011700Z 0118/0218 10007KT 9999 SCT018
TAF
TVSA 011700Z 0118/0218 10007KT 9999 SCT018 =
SR / SS: 09:53 / 21:54 UTC (Sunrise Sunset 2022-10-01)